createdAt,value
2017-03-04T00:00:37.202Z,989.72
2017-03-04T00:01:38.469Z,989.71
2017-03-04T00:02:39.711Z,989.69
2017-03-04T00:03:40.948Z,989.73
2017-03-04T00:04:42.187Z,989.7
2017-03-04T00:05:43.446Z,989.67
2017-03-04T00:06:44.720Z,989.66
2017-03-04T00:07:45.982Z,989.65
2017-03-04T00:08:47.211Z,989.69
2017-03-04T00:09:48.453Z,989.7
2017-03-04T00:10:49.691Z,989.67
2017-03-04T00:11:50.922Z,989.68
2017-03-04T00:12:52.159Z,989.66
2017-03-04T00:13:53.390Z,989.66
2017-03-04T00:14:54.668Z,989.64
2017-03-04T00:15:55.886Z,989.67
2017-03-04T00:16:57.126Z,989.65
2017-03-04T00:17:58.367Z,989.59
2017-03-04T00:18:59.625Z,989.59
2017-03-04T00:20:00.994Z,989.57
2017-03-04T00:21:02.227Z,989.58
2017-03-04T00:22:03.465Z,989.61
2017-03-04T00:23:04.701Z,989.6
2017-03-04T00:24:05.931Z,989.59
2017-03-04T00:25:07.183Z,989.6
2017-03-04T00:26:08.443Z,989.58
2017-03-04T00:27:09.656Z,989.57
2017-03-04T00:28:10.991Z,989.6
2017-03-04T00:29:12.255Z,989.59
2017-03-04T00:30:13.495Z,989.6
2017-03-04T00:31:14.742Z,989.57
2017-03-04T00:32:15.998Z,989.55
2017-03-04T00:33:17.292Z,989.55
2017-03-04T00:34:18.524Z,989.52
2017-03-04T00:35:19.763Z,989.49
2017-03-04T00:36:20.999Z,989.45
2017-03-04T00:37:22.229Z,989.44
2017-03-04T00:38:23.476Z,989.42
2017-03-04T00:39:24.743Z,989.41
2017-03-04T00:40:26.047Z,989.42
2017-03-04T00:41:27.263Z,989.39
2017-03-04T00:42:28.495Z,989.39
2017-03-04T00:43:29.732Z,989.34
2017-03-04T00:44:30.953Z,989.38
2017-03-04T00:45:32.193Z,989.37
2017-03-04T00:46:33.433Z,989.35
2017-03-04T00:47:34.737Z,989.32
2017-03-04T00:48:35.959Z,989.33
2017-03-04T00:49:37.207Z,989.34
2017-03-04T00:50:38.467Z,989.3
2017-03-04T00:51:39.701Z,989.31
2017-03-04T00:52:41.028Z,989.26
2017-03-04T00:53:42.264Z,989.24
2017-03-04T00:54:43.529Z,989.29
2017-03-04T00:55:44.739Z,989.26
2017-03-04T00:56:46.015Z,989.21
2017-03-04T00:57:47.263Z,989.21
2017-03-04T00:58:48.515Z,989.23
2017-03-04T00:59:49.753Z,989.25
2017-03-04T01:00:51.009Z,989.21
2017-03-04T01:01:52.230Z,989.24
2017-03-04T01:02:53.467Z,989.23
2017-03-04T01:03:54.808Z,989.22
2017-03-04T01:04:56.007Z,989.18
2017-03-04T01:05:57.256Z,989.22
2017-03-04T01:06:58.489Z,989.2
2017-03-04T01:07:59.725Z,989.17
2017-03-04T01:09:00.979Z,989.16
2017-03-04T01:10:02.212Z,989.1
2017-03-04T01:11:03.450Z,989.12
2017-03-04T01:12:04.701Z,989.12
2017-03-04T01:13:06.039Z,989.1
2017-03-04T01:14:07.257Z,989.09
2017-03-04T01:15:08.497Z,989.08
2017-03-04T01:16:09.731Z,989.07
2017-03-04T01:17:10.992Z,989.05
2017-03-04T01:18:12.231Z,989.03
2017-03-04T01:19:13.444Z,989.02
2017-03-04T01:20:14.686Z,989.01
2017-03-04T01:21:16.018Z,989.04
2017-03-04T01:22:17.241Z,989.03
2017-03-04T01:23:18.470Z,988.98
2017-03-04T01:24:19.759Z,988.98
2017-03-04T01:25:21.021Z,988.95
2017-03-04T01:26:22.279Z,988.97
2017-03-04T01:27:23.536Z,988.89
2017-03-04T01:28:24.769Z,988.87
2017-03-04T01:29:26.054Z,988.93
2017-03-04T01:30:27.286Z,988.91
2017-03-04T01:31:28.566Z,988.93
2017-03-04T01:32:29.805Z,988.96
2017-03-04T01:33:31.052Z,988.95
2017-03-04T01:34:32.289Z,988.91
2017-03-04T01:35:33.531Z,988.9
2017-03-04T01:36:34.773Z,988.94
2017-03-04T01:37:36.010Z,988.97
2017-03-04T01:38:37.248Z,988.98
2017-03-04T01:39:38.641Z,988.96
2017-03-04T01:40:39.877Z,988.98
2017-03-04T01:41:41.113Z,988.97
2017-03-04T01:42:42.334Z,988.96
2017-03-04T01:43:43.584Z,988.93
2017-03-04T01:44:44.801Z,988.91
2017-03-04T01:45:46.085Z,988.92
2017-03-04T01:46:47.272Z,988.91
2017-03-04T01:47:48.513Z,988.88
2017-03-04T01:48:49.738Z,988.91
2017-03-04T01:49:50.974Z,988.89
2017-03-04T01:50:52.214Z,988.89
2017-03-04T01:51:53.588Z,988.94
2017-03-04T01:52:54.804Z,988.94
2017-03-04T01:53:56.083Z,988.98
2017-03-04T01:54:57.332Z,988.91
2017-03-04T01:55:58.575Z,988.89
2017-03-04T01:56:59.813Z,988.87
2017-03-04T01:58:01.064Z,988.91
2017-03-04T01:59:02.304Z,988.9
2017-03-04T02:00:03.537Z,988.94
2017-03-04T02:01:04.778Z,988.95
2017-03-04T02:02:06.011Z,988.95
2017-03-04T02:03:07.235Z,988.91
2017-03-04T02:04:08.486Z,988.88
2017-03-04T02:05:09.775Z,988.91
2017-03-04T02:06:11.112Z,988.86
2017-03-04T02:07:12.373Z,988.89
2017-03-04T02:08:13.600Z,988.87
2017-03-04T02:09:14.854Z,988.9
2017-03-04T02:10:16.082Z,988.85
2017-03-04T02:11:17.535Z,988.86
2017-03-04T02:12:18.860Z,988.86
2017-03-04T02:13:20.089Z,988.83
2017-03-04T02:14:21.338Z,988.86
2017-03-04T02:15:22.599Z,988.83
2017-03-04T02:16:23.803Z,988.82
2017-03-04T02:17:25.183Z,988.76
2017-03-04T02:18:26.423Z,988.72
2017-03-04T02:19:27.682Z,988.71
2017-03-04T02:20:28.891Z,988.66
2017-03-04T02:21:30.134Z,988.64
2017-03-04T02:22:31.387Z,988.62
2017-03-04T02:23:32.632Z,988.61
2017-03-04T02:24:33.875Z,988.59
2017-03-04T02:25:35.095Z,988.57
2017-03-04T02:26:36.357Z,988.55
2017-03-04T02:27:37.594Z,988.55
2017-03-04T02:28:38.833Z,988.55
2017-03-04T02:29:40.120Z,988.52
2017-03-04T02:30:41.391Z,988.51
2017-03-04T02:31:42.632Z,988.5
2017-03-04T02:32:43.895Z,988.48
2017-03-04T02:33:45.129Z,988.48
2017-03-04T02:34:46.375Z,988.46
2017-03-04T02:35:47.743Z,988.44
2017-03-04T02:36:49.079Z,988.44
2017-03-04T02:37:50.432Z,988.46
2017-03-04T02:38:51.647Z,988.46
2017-03-04T02:39:52.876Z,988.49
2017-03-04T02:40:54.130Z,988.44
2017-03-04T02:41:55.382Z,988.45
2017-03-04T02:42:56.611Z,988.43
2017-03-04T02:43:57.894Z,988.41
2017-03-04T02:44:59.145Z,988.42
2017-03-04T02:46:00.359Z,988.44
2017-03-04T02:47:01.598Z,988.4
2017-03-04T02:48:03.088Z,988.37
2017-03-04T02:49:04.356Z,988.35
2017-03-04T02:50:05.588Z,988.36
2017-03-04T02:51:06.829Z,988.39
2017-03-04T02:52:08.062Z,988.34
2017-03-04T02:53:09.315Z,988.32
2017-03-04T02:54:10.643Z,988.32
2017-03-04T02:55:11.890Z,988.28
2017-03-04T02:56:13.135Z,988.28
2017-03-04T02:57:14.359Z,988.26
2017-03-04T02:58:15.588Z,988.25
2017-03-04T02:59:16.837Z,988.25
2017-03-04T03:00:18.085Z,988.2
2017-03-04T03:01:19.389Z,988.2
2017-03-04T03:02:20.625Z,988.19
2017-03-04T03:03:21.900Z,988.22
2017-03-04T03:04:23.116Z,988.19
2017-03-04T03:05:24.350Z,988.17
2017-03-04T03:06:25.591Z,988.2
2017-03-04T03:07:26.882Z,988.22
2017-03-04T03:08:28.192Z,988.21
2017-03-04T03:09:29.411Z,988.2
2017-03-04T03:10:30.685Z,988.2
2017-03-04T03:11:31.899Z,988.22
2017-03-04T03:12:33.277Z,988.23
2017-03-04T03:13:34.511Z,988.25
2017-03-04T03:14:35.737Z,988.32
2017-03-04T03:15:36.998Z,988.3
2017-03-04T03:16:38.208Z,988.31
2017-03-04T03:17:39.443Z,988.34
2017-03-04T03:18:40.674Z,988.3
2017-03-04T03:19:41.921Z,988.3
2017-03-04T03:20:43.173Z,988.32
2017-03-04T03:21:44.426Z,988.32
2017-03-04T03:22:45.665Z,988.28
2017-03-04T03:23:46.898Z,988.28
2017-03-04T03:24:48.160Z,988.25
2017-03-04T03:25:49.412Z,988.24
2017-03-04T03:26:50.629Z,988.29
2017-03-04T03:27:51.863Z,988.24
2017-03-04T03:28:53.104Z,988.3
2017-03-04T03:29:54.342Z,988.29
2017-03-04T03:30:55.601Z,988.29
2017-03-04T03:31:56.903Z,988.29
2017-03-04T03:32:58.101Z,988.29
2017-03-04T03:33:59.361Z,988.28
2017-03-04T03:35:00.608Z,988.3
2017-03-04T03:36:01.847Z,988.27
2017-03-04T03:37:03.086Z,988.26
2017-03-04T03:38:04.342Z,988.25
2017-03-04T03:39:05.547Z,988.25
2017-03-04T03:40:06.972Z,988.2
2017-03-04T03:41:08.255Z,988.23
2017-03-04T03:42:09.517Z,988.23
2017-03-04T03:43:10.781Z,988.28
2017-03-04T03:44:12.010Z,988.19
2017-03-04T03:45:13.252Z,988.22
2017-03-04T03:46:14.523Z,988.2
2017-03-04T03:47:15.750Z,988.14
2017-03-04T03:48:17.045Z,988.19
2017-03-04T03:49:18.285Z,988.14
2017-03-04T03:50:19.544Z,988.13
2017-03-04T03:51:20.802Z,988.11
2017-03-04T03:52:22.012Z,988.09
2017-03-04T03:53:23.473Z,988.06
2017-03-04T03:54:24.774Z,988.09
2017-03-04T03:55:25.993Z,988.06
2017-03-04T03:56:27.236Z,988.04
2017-03-04T03:57:28.508Z,988.08
2017-03-04T03:58:29.718Z,988.06
2017-03-04T03:59:30.970Z,988.04
2017-03-04T04:00:32.188Z,988.02
2017-03-04T04:01:33.425Z,988
2017-03-04T04:02:34.672Z,987.99
2017-03-04T04:03:35.903Z,987.96
2017-03-04T04:04:37.128Z,987.96
2017-03-04T04:05:38.388Z,987.85
2017-03-04T04:06:39.616Z,987.86
2017-03-04T04:07:40.895Z,987.84
2017-03-04T04:08:42.132Z,987.87
2017-03-04T04:09:43.451Z,987.81
2017-03-04T04:10:44.698Z,987.8
2017-03-04T04:11:45.931Z,987.83
2017-03-04T04:12:47.196Z,987.82
2017-03-04T04:13:48.451Z,987.86
2017-03-04T04:14:49.685Z,987.86
2017-03-04T04:15:50.925Z,987.84
2017-03-04T04:16:52.157Z,987.88
2017-03-04T04:17:53.414Z,987.87
2017-03-04T04:18:54.639Z,987.88
2017-03-04T04:19:55.867Z,987.9
2017-03-04T04:20:57.111Z,987.85
2017-03-04T04:21:58.375Z,987.86
2017-03-04T04:22:59.627Z,987.86
2017-03-04T04:24:00.915Z,987.86
2017-03-04T04:25:02.127Z,987.84
2017-03-04T04:26:03.474Z,987.81
2017-03-04T04:27:04.734Z,987.79
2017-03-04T04:28:05.956Z,987.8
2017-03-04T04:29:07.215Z,987.82
2017-03-04T04:30:08.444Z,987.82
2017-03-04T04:31:09.731Z,987.81
2017-03-04T04:32:10.995Z,987.83
2017-03-04T04:33:12.261Z,987.81
2017-03-04T04:34:13.458Z,987.78
2017-03-04T04:35:14.697Z,987.82
2017-03-04T04:36:15.943Z,987.82
2017-03-04T04:37:17.190Z,987.82
2017-03-04T04:38:18.492Z,987.83
2017-03-04T04:39:19.727Z,987.8
2017-03-04T04:40:20.983Z,987.82
2017-03-04T04:41:22.204Z,987.83
2017-03-04T04:42:23.442Z,987.83
2017-03-04T04:43:24.674Z,987.86
2017-03-04T04:44:26.001Z,987.84
2017-03-04T04:45:27.262Z,987.86
2017-03-04T04:46:28.497Z,987.86
2017-03-04T04:47:29.730Z,987.87
2017-03-04T04:48:30.965Z,987.89
2017-03-04T04:49:32.236Z,987.86
2017-03-04T04:50:33.455Z,987.85
2017-03-04T04:51:34.871Z,987.85
2017-03-04T04:52:36.094Z,987.82
2017-03-04T04:53:37.352Z,987.8
2017-03-04T04:54:38.575Z,987.81
2017-03-04T04:55:39.801Z,987.78
2017-03-04T04:56:41.104Z,987.75
2017-03-04T04:57:42.353Z,987.79
2017-03-04T04:58:43.587Z,987.74
2017-03-04T04:59:44.815Z,987.72
2017-03-04T05:00:46.055Z,987.69
2017-03-04T05:01:47.286Z,987.65
2017-03-04T05:02:48.526Z,987.64
2017-03-04T05:03:49.811Z,987.63
2017-03-04T05:04:51.026Z,987.61
2017-03-04T05:05:52.274Z,987.64
2017-03-04T05:06:53.502Z,987.56
2017-03-04T05:07:54.739Z,987.58
2017-03-04T05:08:55.980Z,987.52
2017-03-04T05:09:57.317Z,987.52
2017-03-04T05:10:58.556Z,987.52
2017-03-04T05:11:59.825Z,987.51
2017-03-04T05:13:01.061Z,987.51
2017-03-04T05:14:02.305Z,987.5
2017-03-04T05:15:03.548Z,987.48
2017-03-04T05:16:04.904Z,987.48
2017-03-04T05:17:06.145Z,987.47
2017-03-04T05:18:07.386Z,987.46
2017-03-04T05:19:08.620Z,987.45
2017-03-04T05:20:09.849Z,987.41
2017-03-04T05:21:11.088Z,987.41
2017-03-04T05:22:12.319Z,987.42
2017-03-04T05:23:13.637Z,987.4
2017-03-04T05:24:14.928Z,987.38
2017-03-04T05:25:16.183Z,987.37
2017-03-04T05:26:17.434Z,987.43
2017-03-04T05:27:18.657Z,987.4
2017-03-04T05:28:19.895Z,987.44
2017-03-04T05:29:21.246Z,987.41
2017-03-04T05:30:22.533Z,987.42
2017-03-04T05:31:23.767Z,987.41
2017-03-04T05:32:25.026Z,987.38
2017-03-04T05:33:26.271Z,987.33
2017-03-04T05:34:27.487Z,987.29
2017-03-04T05:35:28.753Z,987.24
2017-03-04T05:36:29.986Z,987.24
2017-03-04T05:37:31.345Z,987.2
2017-03-04T05:38:32.592Z,987.23
2017-03-04T05:39:33.821Z,987.2
2017-03-04T05:40:35.054Z,987.25
2017-03-04T05:41:36.293Z,987.27
2017-03-04T05:42:37.532Z,987.24
2017-03-04T05:43:38.795Z,987.21
2017-03-04T05:44:40.028Z,987.23
2017-03-04T05:45:41.289Z,987.21
2017-03-04T05:46:42.550Z,987.19
2017-03-04T05:47:43.809Z,987.2
2017-03-04T05:48:45.117Z,987.2
2017-03-04T05:49:46.423Z,987.23
2017-03-04T05:50:47.682Z,987.26
2017-03-04T05:51:48.927Z,987.25
2017-03-04T05:52:50.172Z,987.29
2017-03-04T05:53:51.424Z,987.26
2017-03-04T05:54:52.769Z,987.25
2017-03-04T05:55:54.005Z,987.25
2017-03-04T05:56:55.240Z,987.23
2017-03-04T05:57:56.477Z,987.2
2017-03-04T05:58:57.708Z,987.22
2017-03-04T05:59:58.945Z,987.17
2017-03-04T06:01:00.179Z,987.19
2017-03-04T06:02:01.595Z,987.22
2017-03-04T06:03:02.854Z,987.23
2017-03-04T06:04:04.093Z,987.24
2017-03-04T06:05:05.326Z,987.23
2017-03-04T06:06:06.570Z,987.26
2017-03-04T06:07:07.818Z,987.23
2017-03-04T06:08:09.201Z,987.23
2017-03-04T06:09:10.443Z,987.22
2017-03-04T06:10:11.698Z,987.2
2017-03-04T06:11:12.909Z,987.25
2017-03-04T06:12:14.147Z,987.2
2017-03-04T06:13:15.453Z,987.25
2017-03-04T06:14:16.711Z,987.24
2017-03-04T06:15:18.115Z,987.24
2017-03-04T06:16:19.336Z,987.26
2017-03-04T06:17:20.573Z,987.26
2017-03-04T06:18:21.800Z,987.26
2017-03-04T06:19:23.112Z,987.27
2017-03-04T06:20:24.340Z,987.32
2017-03-04T06:21:25.560Z,987.32
2017-03-04T06:22:26.799Z,987.28
2017-03-04T06:23:28.021Z,987.33
2017-03-04T06:24:29.256Z,987.32
2017-03-04T06:25:30.489Z,987.29
2017-03-04T06:26:31.744Z,987.33
2017-03-04T06:27:33.177Z,987.3
2017-03-04T06:28:34.492Z,987.25
2017-03-04T06:29:35.733Z,987.27
2017-03-04T06:30:36.980Z,987.29
2017-03-04T06:31:38.219Z,987.31
2017-03-04T06:32:39.479Z,987.31
2017-03-04T06:33:40.899Z,987.33
2017-03-04T06:34:42.132Z,987.33
2017-03-04T06:35:43.381Z,987.34
2017-03-04T06:36:44.596Z,987.35
2017-03-04T06:37:45.929Z,987.37
2017-03-04T06:38:47.195Z,987.36
2017-03-04T06:39:48.401Z,987.35
2017-03-04T06:40:49.650Z,987.4
2017-03-04T06:41:50.898Z,987.38
2017-03-04T06:42:52.110Z,987.39
2017-03-04T06:43:53.350Z,987.42
2017-03-04T06:44:54.607Z,987.4
2017-03-04T06:45:55.859Z,987.4
2017-03-04T06:46:57.099Z,987.42
2017-03-04T06:47:58.391Z,987.43
2017-03-04T06:48:59.636Z,987.4
2017-03-04T06:50:00.869Z,987.4
2017-03-04T06:51:02.108Z,987.44
2017-03-04T06:52:03.454Z,987.45
2017-03-04T06:53:04.676Z,987.44
2017-03-04T06:54:05.913Z,987.46
2017-03-04T06:55:07.140Z,987.47
2017-03-04T06:56:08.391Z,987.47
2017-03-04T06:57:09.653Z,987.49
2017-03-04T06:58:10.880Z,987.52
2017-03-04T06:59:12.120Z,987.52
2017-03-04T07:00:13.385Z,987.52
2017-03-04T07:01:14.606Z,987.48
2017-03-04T07:02:15.844Z,987.48
2017-03-04T07:03:17.083Z,987.45
2017-03-04T07:04:18.328Z,987.45
2017-03-04T07:05:19.597Z,987.47
2017-03-04T07:06:20.925Z,987.47
2017-03-04T07:07:22.159Z,987.48
2017-03-04T07:08:23.402Z,987.46
2017-03-04T07:09:24.663Z,987.5
2017-03-04T07:10:25.929Z,987.39
2017-03-04T07:11:27.193Z,987.43
2017-03-04T07:12:28.440Z,987.4
2017-03-04T07:13:29.690Z,987.45
2017-03-04T07:14:31.004Z,987.47
2017-03-04T07:15:32.243Z,987.41
2017-03-04T07:16:33.489Z,987.39
2017-03-04T07:17:34.726Z,987.43
2017-03-04T07:18:35.994Z,987.39
2017-03-04T07:19:37.263Z,987.39
2017-03-04T07:20:38.652Z,987.37
2017-03-04T07:21:39.909Z,987.33
2017-03-04T07:22:41.344Z,987.33
2017-03-04T07:23:42.659Z,987.36
2017-03-04T07:24:43.898Z,987.31
2017-03-04T07:25:45.124Z,987.34
2017-03-04T07:26:46.366Z,987.29
2017-03-04T07:27:47.618Z,987.29
2017-03-04T07:28:48.998Z,987.33
2017-03-04T07:29:50.267Z,987.27
2017-03-04T07:30:51.532Z,987.29
2017-03-04T07:31:52.783Z,987.29
2017-03-04T07:32:54.053Z,987.28
2017-03-04T07:33:55.278Z,987.26
2017-03-04T07:34:56.523Z,987.3
2017-03-04T07:35:57.786Z,987.32
2017-03-04T07:36:59.064Z,987.37
2017-03-04T07:38:00.310Z,987.38
2017-03-04T07:39:01.556Z,987.32
2017-03-04T07:40:02.797Z,987.34
2017-03-04T07:41:04.147Z,987.37
2017-03-04T07:42:05.387Z,987.35
2017-03-04T07:43:06.631Z,987.35
2017-03-04T07:44:07.893Z,987.41
2017-03-04T07:45:09.142Z,987.36
2017-03-04T07:46:10.378Z,987.37
2017-03-04T07:47:11.629Z,987.33
2017-03-04T07:48:12.979Z,987.32
2017-03-04T07:49:14.245Z,987.3
2017-03-04T07:50:15.480Z,987.33
2017-03-04T07:51:16.693Z,987.28
2017-03-04T07:52:17.941Z,987.25
2017-03-04T07:53:19.168Z,987.2
2017-03-04T07:54:20.434Z,987.21
2017-03-04T07:55:21.672Z,987.18
2017-03-04T07:56:23.067Z,987.18
2017-03-04T07:57:24.318Z,987.14
2017-03-04T07:58:25.578Z,987.1
2017-03-04T07:59:26.794Z,987.11
2017-03-04T08:00:28.043Z,987.12
2017-03-04T08:01:29.560Z,987.09
2017-03-04T08:02:30.816Z,987.12
2017-03-04T08:03:32.054Z,987.12
2017-03-04T08:04:33.295Z,987.12
2017-03-04T08:05:34.536Z,987.08
2017-03-04T08:06:35.883Z,987.09
2017-03-04T08:07:37.122Z,987.08
2017-03-04T08:08:38.441Z,987.12
2017-03-04T08:09:39.706Z,987.13
2017-03-04T08:10:40.971Z,987.15
2017-03-04T08:11:42.221Z,987.19
2017-03-04T08:12:43.502Z,987.15
2017-03-04T08:13:44.760Z,987.15
2017-03-04T08:14:45.981Z,987.18
2017-03-04T08:15:47.226Z,987.15
2017-03-04T08:16:48.477Z,987.12
2017-03-04T08:17:49.756Z,987.15
2017-03-04T08:18:51.013Z,987.15
2017-03-04T08:19:52.268Z,987.13
2017-03-04T08:20:53.545Z,987.13
2017-03-04T08:21:54.813Z,987.13
2017-03-04T08:22:56.066Z,987.13
2017-03-04T08:23:57.316Z,987.1
2017-03-04T08:24:58.558Z,987.12
2017-03-04T08:25:59.835Z,987.16
2017-03-04T08:27:01.057Z,987.18
2017-03-04T08:28:02.314Z,987.19
2017-03-04T08:29:03.568Z,987.16
2017-03-04T08:30:04.820Z,987.12
2017-03-04T08:31:06.127Z,987.14
2017-03-04T08:32:07.427Z,987.15
2017-03-04T08:33:08.683Z,987.1
2017-03-04T08:34:09.945Z,987.09
2017-03-04T08:35:11.176Z,987.11
2017-03-04T08:36:12.425Z,987.08
2017-03-04T08:37:13.712Z,987.12
2017-03-04T08:38:14.945Z,987.12
2017-03-04T08:39:16.197Z,987.15
2017-03-04T08:40:17.471Z,987.15
2017-03-04T08:41:18.796Z,987.16
2017-03-04T08:42:20.009Z,987.13
2017-03-04T08:43:21.241Z,987.1
2017-03-04T08:44:22.511Z,987.15
2017-03-04T08:45:23.762Z,987.11
2017-03-04T08:46:25.008Z,987.11
2017-03-04T08:47:26.285Z,987.15
2017-03-04T08:48:27.537Z,987.15
2017-03-04T08:49:28.762Z,987.12
2017-03-04T08:50:30.041Z,987.13
2017-03-04T08:51:31.434Z,987.07
2017-03-04T08:52:32.713Z,987.01
2017-03-04T08:53:33.958Z,987.03
2017-03-04T08:54:35.195Z,987
2017-03-04T08:55:36.456Z,987.06
2017-03-04T08:56:37.738Z,987.1
2017-03-04T08:57:38.988Z,987.07
2017-03-04T08:58:40.219Z,987.07
2017-03-04T08:59:41.458Z,987.03
2017-03-04T09:00:42.723Z,987.02
2017-03-04T09:01:43.978Z,986.98
2017-03-04T09:02:45.220Z,986.98
2017-03-04T09:03:46.450Z,986.99
2017-03-04T09:04:47.672Z,987.02
2017-03-04T09:05:48.935Z,987.03
2017-03-04T09:06:50.161Z,987.01
2017-03-04T09:07:51.410Z,987.05
2017-03-04T09:08:52.671Z,987.03
2017-03-04T09:09:54.043Z,987.02
2017-03-04T09:10:55.287Z,987
2017-03-04T09:11:56.659Z,987.03
2017-03-04T09:12:57.901Z,986.99
2017-03-04T09:13:59.183Z,987.06
2017-03-04T09:15:00.427Z,987.03
2017-03-04T09:16:01.906Z,987.03
2017-03-04T09:17:03.187Z,987.05
2017-03-04T09:18:04.464Z,986.97
2017-03-04T09:19:05.700Z,986.98
2017-03-04T09:20:06.932Z,986.98
2017-03-04T09:21:08.256Z,986.97
2017-03-04T09:22:09.522Z,986.94
2017-03-04T09:23:10.761Z,986.95
2017-03-04T09:24:12.025Z,986.92
2017-03-04T09:25:13.258Z,986.93
2017-03-04T09:26:14.527Z,986.93
2017-03-04T09:27:15.777Z,986.92
2017-03-04T09:28:16.996Z,986.9
2017-03-04T09:29:18.229Z,986.93
2017-03-04T09:30:19.452Z,986.93
2017-03-04T09:31:20.713Z,986.92
2017-03-04T09:32:21.970Z,986.96
2017-03-04T09:33:23.222Z,986.94
2017-03-04T09:34:24.470Z,986.97
2017-03-04T09:35:25.735Z,986.92
2017-03-04T09:36:26.989Z,986.93
2017-03-04T09:37:28.226Z,986.95
2017-03-04T09:38:29.478Z,986.93
2017-03-04T09:39:30.717Z,986.92
2017-03-04T09:40:31.976Z,986.93
2017-03-04T09:41:33.396Z,986.92
2017-03-04T09:42:34.643Z,986.89
2017-03-04T09:43:35.870Z,986.91
2017-03-04T09:44:37.124Z,986.9
2017-03-04T09:45:38.366Z,986.88
2017-03-04T09:46:39.610Z,986.88
2017-03-04T09:47:40.912Z,986.87
2017-03-04T09:48:42.287Z,986.87
2017-03-04T09:49:43.426Z,986.88
2017-03-04T09:50:44.679Z,986.87
2017-03-04T09:51:45.926Z,986.81
2017-03-04T09:52:47.175Z,986.85
2017-03-04T09:53:48.422Z,986.79
2017-03-04T09:54:49.673Z,986.84
2017-03-04T09:55:50.912Z,986.8
2017-03-04T09:56:52.231Z,986.78
2017-03-04T09:57:53.490Z,986.8
2017-03-04T09:58:54.833Z,986.76
2017-03-04T09:59:56.097Z,986.77
2017-03-04T10:00:57.443Z,986.79
2017-03-04T10:01:58.695Z,986.74
2017-03-04T10:02:59.953Z,986.69
2017-03-04T10:04:01.213Z,986.62
2017-03-04T10:05:02.489Z,986.67
2017-03-04T10:06:03.738Z,986.72
2017-03-04T10:07:05.004Z,986.73
2017-03-04T10:08:06.270Z,986.66
2017-03-04T10:09:07.501Z,986.66
2017-03-04T10:10:08.773Z,986.69
2017-03-04T10:11:10.004Z,986.67
2017-03-04T10:12:11.349Z,986.6
2017-03-04T10:13:12.583Z,986.58
2017-03-04T10:14:13.835Z,986.55
2017-03-04T10:15:15.108Z,986.55
2017-03-04T10:16:16.362Z,986.52
2017-03-04T10:17:17.596Z,986.52
2017-03-04T10:18:18.913Z,986.54
2017-03-04T10:19:20.115Z,986.55
2017-03-04T10:20:21.496Z,986.49
2017-03-04T10:21:22.720Z,986.5
2017-03-04T10:22:23.966Z,986.51
2017-03-04T10:23:25.204Z,986.56
2017-03-04T10:24:26.455Z,986.53
2017-03-04T10:25:27.720Z,986.56
2017-03-04T10:26:29.054Z,986.54
2017-03-04T10:27:30.290Z,986.55
2017-03-04T10:28:31.536Z,986.57
2017-03-04T10:29:32.830Z,986.53
2017-03-04T10:30:34.086Z,986.54
2017-03-04T10:31:35.444Z,986.51
2017-03-04T10:32:36.697Z,986.5
2017-03-04T10:33:37.948Z,986.48
2017-03-04T10:34:39.201Z,986.48
2017-03-04T10:35:40.445Z,986.41
2017-03-04T10:36:41.753Z,986.45
2017-03-04T10:37:43.032Z,986.48
2017-03-04T10:38:44.337Z,986.49
2017-03-04T10:39:45.594Z,986.52
2017-03-04T10:40:46.848Z,986.52
2017-03-04T10:41:48.137Z,986.5
2017-03-04T10:42:49.388Z,986.48
2017-03-04T10:43:50.717Z,986.46
2017-03-04T10:44:51.922Z,986.48
2017-03-04T10:45:53.176Z,986.51
2017-03-04T10:46:54.425Z,986.48
2017-03-04T10:47:55.730Z,986.47
2017-03-04T10:48:57.114Z,986.46
2017-03-04T10:49:58.257Z,986.47
2017-03-04T10:50:59.615Z,986.49
2017-03-04T10:52:00.886Z,986.49
2017-03-04T10:53:02.124Z,986.5
2017-03-04T10:54:03.396Z,986.48
2017-03-04T10:55:04.616Z,986.53
2017-03-04T10:56:05.914Z,986.54
2017-03-04T10:57:07.193Z,986.56
2017-03-04T10:58:08.448Z,986.57
2017-03-04T10:59:09.686Z,986.55
2017-03-04T11:00:10.931Z,986.57
2017-03-04T11:01:12.269Z,986.57
2017-03-04T11:02:13.584Z,986.58
2017-03-04T11:03:14.905Z,986.57
2017-03-04T11:04:16.147Z,986.53
2017-03-04T11:05:17.406Z,986.52
2017-03-04T11:06:18.647Z,986.49
2017-03-04T11:07:19.896Z,986.51
2017-03-04T11:08:21.294Z,986.51
2017-03-04T11:09:22.536Z,986.49
2017-03-04T11:10:23.791Z,986.51
2017-03-04T11:11:25.022Z,986.49
2017-03-04T11:12:26.269Z,986.51
2017-03-04T11:13:27.526Z,986.52
2017-03-04T11:14:28.773Z,986.51
2017-03-04T11:15:30.016Z,986.47
2017-03-04T11:16:31.264Z,986.49
2017-03-04T11:17:32.535Z,986.41
2017-03-04T11:18:33.775Z,986.39
2017-03-04T11:19:35.152Z,986.42
2017-03-04T11:20:36.402Z,986.4
2017-03-04T11:21:37.656Z,986.35
2017-03-04T11:22:38.897Z,986.27
2017-03-04T11:23:40.141Z,986.27
2017-03-04T11:24:41.424Z,986.2
2017-03-04T11:25:42.674Z,986.18
2017-03-04T11:26:43.962Z,986.18
2017-03-04T11:27:45.245Z,986.17
2017-03-04T11:28:46.470Z,986.19
2017-03-04T11:29:47.783Z,986.14
2017-03-04T11:30:49.004Z,986.08
2017-03-04T11:31:50.236Z,986.08
2017-03-04T11:32:51.581Z,986.08
2017-03-04T11:33:52.802Z,986.07
2017-03-04T11:34:54.042Z,986.06
2017-03-04T11:35:55.277Z,986.1
2017-03-04T11:36:56.541Z,986.06
2017-03-04T11:37:57.888Z,986.01
2017-03-04T11:38:59.244Z,986
2017-03-04T11:40:00.531Z,985.97
2017-03-04T11:41:01.766Z,985.95
2017-03-04T11:42:03.071Z,985.92
2017-03-04T11:43:04.319Z,985.94
2017-03-04T11:44:05.563Z,985.9
2017-03-04T11:45:06.848Z,985.83
2017-03-04T11:46:08.087Z,985.79
2017-03-04T11:47:09.372Z,985.74
2017-03-04T11:48:10.716Z,985.73
2017-03-04T11:49:11.971Z,985.73
2017-03-04T11:50:13.242Z,985.76
2017-03-04T11:51:14.487Z,985.76
2017-03-04T11:52:15.865Z,985.81
2017-03-04T11:53:17.342Z,985.77
2017-03-04T11:54:18.597Z,985.76
2017-03-04T11:55:19.855Z,985.76
2017-03-04T11:56:21.111Z,985.81
2017-03-04T11:57:22.367Z,985.84
2017-03-04T11:58:23.672Z,985.89
2017-03-04T11:59:24.925Z,985.92
2017-03-04T12:00:26.170Z,985.95
2017-03-04T12:01:27.431Z,985.95
2017-03-04T12:02:28.678Z,985.92
2017-03-04T12:03:29.959Z,985.88
2017-03-04T12:04:31.288Z,985.86
2017-03-04T12:05:32.549Z,985.85
2017-03-04T12:06:33.789Z,985.78
2017-03-04T12:07:35.039Z,985.76
2017-03-04T12:08:36.306Z,985.78
2017-03-04T12:09:37.557Z,985.75
2017-03-04T12:10:38.866Z,985.8
2017-03-04T12:11:40.093Z,985.79
2017-03-04T12:12:41.342Z,985.84
2017-03-04T12:13:42.591Z,985.84
2017-03-04T12:14:43.837Z,985.85
2017-03-04T12:15:45.109Z,985.88
2017-03-04T12:16:46.358Z,985.89
2017-03-04T12:17:47.598Z,985.9
2017-03-04T12:18:48.857Z,985.93
2017-03-04T12:19:50.148Z,985.97
2017-03-04T12:20:51.437Z,986
2017-03-04T12:21:52.669Z,985.98
2017-03-04T12:22:53.903Z,985.99
2017-03-04T12:23:55.243Z,985.95
2017-03-04T12:24:56.492Z,985.97
2017-03-04T12:25:57.726Z,985.92
2017-03-04T12:26:58.951Z,985.85
2017-03-04T12:28:00.220Z,985.86
2017-03-04T12:29:01.546Z,985.81
2017-03-04T12:30:02.912Z,985.77
2017-03-04T12:31:04.169Z,985.79
2017-03-04T12:32:05.406Z,985.68
2017-03-04T12:33:06.641Z,985.67
2017-03-04T12:34:08.000Z,985.62
2017-03-04T12:35:09.337Z,985.62
2017-03-04T12:36:10.592Z,985.64
2017-03-04T12:37:11.852Z,985.68
2017-03-04T12:38:13.093Z,985.68
2017-03-04T12:39:14.329Z,985.66
2017-03-04T12:40:15.582Z,985.62
2017-03-04T12:41:16.909Z,985.63
2017-03-04T12:42:18.165Z,985.6
2017-03-04T12:43:19.406Z,985.59
2017-03-04T12:44:20.656Z,985.5
2017-03-04T12:45:22.078Z,985.48
2017-03-04T12:46:23.402Z,985.5
2017-03-04T12:47:24.669Z,985.49